Chaoyang, China
Current Conditions -  °F | °C
As of 6:30 PM on Saturday 20 Dec 2014 (Local Time) from ZYTX Reporting Station
Smoke Smoke  
Wind Chill:   Ceiling: Unl
Heat Index:   Visibility: 2.1mi
Dew Point: -2°   Wind: 2mph
Humidity: 78%   Direction: 110°ESE
Pressure: 30.33"   Gusts: NA
Location:  41.55°N, 120.42°E
Report Text: ZYTX 201030Z 11001MPS 3500 FU NSC M16/M19 Q1027 NOSIG
Loading
Personal Weather Stations






























Interactive Weather Map New forecast layout! Learn more

10-Day Weather Forecast

Advertisements
Track Severe Weather on mobile